Portada
METAR-TAF:

METAR-TAF

Aeropuertos :

Base Aérea de Valencia-Bétera

Valencia, España

latitud: 39-37-26N, longitud: 0-28-26W, altitud: 127 m

Observación

El informe se hizo hace 36 minutos, a las 22:30 UTC
Viento 5 kt del norte-noreste, variando entre noroeste y este
Temperatura 12°C
Humedad 94%
Presión 1012 hPa
Visibilidad: 6000 m
Escasas nubes a una altura de 2000 ft
Cielo nuboso a una altura de 3800 ft
Cielo nuboso a una altura de 4500 ft

METAR: LEBT 312230Z AUTO 03005KT 310V100 6000 FEW020 BKN038 BKN045 12/11 Q1012

Hora: 01:06 (23:06 UTC)


TAF: falta

Observaciones y pronósticos meteorológicos de más de 4000 aeropuertos (mensajes METAR y TAF).

Los puntos amarillos y rojos representan las estaciones disponibles.

Ponga el ratón en el punto deseado para ver el nombre de la estación.

Haga clic para ver las observaciones y los pronósticos meteorológicos.

Para cambiar el mapa : haga clic en los botones verdes con una cruz de color negro para hacer un zoom, en el botón verde con un guión para alejar o en las flechas verdes para mapas adyacentes.


METAR-TAF: